createdAt,value
2022-11-24T00:01:15.882Z,6.47
2022-11-24T00:03:44.981Z,6.80
2022-11-24T00:06:14.563Z,6.60
2022-11-24T00:08:43.643Z,6.90
2022-11-24T00:11:16.176Z,7.57
2022-11-24T00:13:44.018Z,7.05
2022-11-24T00:16:15.841Z,7.22
2022-11-24T00:18:44.174Z,7.18
2022-11-24T00:21:11.551Z,7.80
2022-11-24T00:23:38.856Z,7.63
2022-11-24T00:26:13.354Z,7.20
2022-11-24T00:28:41.311Z,8.05
2022-11-24T00:31:18.939Z,7.80
2022-11-24T00:33:47.380Z,8.23
2022-11-24T00:36:15.028Z,7.53
2022-11-24T00:38:41.855Z,6.93
2022-11-24T00:41:08.740Z,7.70
2022-11-24T00:43:35.482Z,8.15
2022-11-24T00:46:02.600Z,7.70
2022-11-24T00:48:30.102Z,7.53
2022-11-24T00:51:05.618Z,7.40
2022-11-24T00:53:32.687Z,8.95
2022-11-24T00:55:59.562Z,9.35
2022-11-24T00:58:26.815Z,9.88
2022-11-24T01:00:53.626Z,9.65
2022-11-24T01:03:21.137Z,10.32
2022-11-24T01:05:48.721Z,11.10
2022-11-24T01:08:15.643Z,11.48
2022-11-24T01:10:42.621Z,11.07
2022-11-24T01:13:09.456Z,10.77
2022-11-24T01:15:36.832Z,11.95
2022-11-24T01:18:04.338Z,11.88
2022-11-24T01:20:32.312Z,13.40
2022-11-24T01:22:59.055Z,14.77
2022-11-24T01:25:25.837Z,12.93
2022-11-24T01:27:52.763Z,12.93
2022-11-24T01:30:19.753Z,13.68
2022-11-24T01:32:46.500Z,12.93
2022-11-24T01:35:13.259Z,12.85
2022-11-24T01:37:40.022Z,14.20
2022-11-24T01:40:07.592Z,13.45
2022-11-24T01:42:46.663Z,15.07
2022-11-24T01:45:43.173Z,12.85
2022-11-24T01:48:38.583Z,13.55
2022-11-24T01:51:10.206Z,13.35
2022-11-24T01:53:39.018Z,12.93
2022-11-24T01:56:06.871Z,13.73
2022-11-24T01:58:36.391Z,12.90
2022-11-24T02:01:03.257Z,13.27
2022-11-24T02:03:37.902Z,12.98
2022-11-24T02:06:20.724Z,13.50
2022-11-24T02:09:11.619Z,13.88
2022-11-24T02:11:40.442Z,14.93
2022-11-24T02:14:10.159Z,14.45
2022-11-24T02:16:38.624Z,13.55
2022-11-24T02:19:43.123Z,13.57
2022-11-24T02:22:29.425Z,11.93
2022-11-24T02:25:36.016Z,12.48
2022-11-24T02:28:07.349Z,12.80
2022-11-24T02:30:34.938Z,12.68
2022-11-24T02:33:02.952Z,12.48
2022-11-24T02:35:29.972Z,12.32
2022-11-24T02:37:56.758Z,11.40
2022-11-24T02:40:26.980Z,11.23
2022-11-24T02:43:09.549Z,11.13
2022-11-24T02:45:36.366Z,10.57
2022-11-24T02:48:03.158Z,10.68
2022-11-24T02:50:29.901Z,12.27
2022-11-24T02:52:56.679Z,11.27
2022-11-24T02:55:23.706Z,10.95
2022-11-24T02:57:50.596Z,11.80
2022-11-24T03:00:18.265Z,11.75
2022-11-24T03:02:45.214Z,10.68
2022-11-24T03:05:12.785Z,10.75
2022-11-24T03:07:40.523Z,11.30
2022-11-24T03:10:07.752Z,11.88
2022-11-24T03:12:34.586Z,11.32
2022-11-24T03:15:03.251Z,11.50
2022-11-24T03:17:30.033Z,12.25
2022-11-24T03:20:00.233Z,11.02
2022-11-24T03:22:31.008Z,11.77
2022-11-24T03:24:57.761Z,12.18
2022-11-24T03:27:24.501Z,11.90
2022-11-24T03:29:51.275Z,10.93
2022-11-24T03:32:18.099Z,12.00
2022-11-24T03:34:45.082Z,10.57
2022-11-24T03:37:12.108Z,10.68
2022-11-24T03:39:38.840Z,9.38
2022-11-24T03:42:05.642Z,9.50
2022-11-24T03:44:32.866Z,9.63
2022-11-24T03:46:59.820Z,9.57
2022-11-24T03:49:26.560Z,8.50
2022-11-24T03:51:53.568Z,9.05
2022-11-24T03:54:20.371Z,9.63
2022-11-24T03:56:47.534Z,9.38
2022-11-24T03:59:14.356Z,9.18
2022-11-24T04:01:41.138Z,8.57
2022-11-24T04:04:10.952Z,8.38
2022-11-24T04:06:37.713Z,7.93
2022-11-24T04:09:04.966Z,7.95
2022-11-24T04:11:50.949Z,7.70
2022-11-24T04:14:18.446Z,7.10
2022-11-24T04:16:45.280Z,7.63
2022-11-24T04:19:12.050Z,7.68
2022-11-24T04:21:38.836Z,9.68
2022-11-24T04:24:05.833Z,9.65
2022-11-24T04:26:32.978Z,9.77
2022-11-24T04:28:59.712Z,9.05
2022-11-24T04:31:26.513Z,10.20
2022-11-24T04:33:53.348Z,9.30
2022-11-24T04:36:20.065Z,8.40
2022-11-24T04:39:23.989Z,8.32
2022-11-24T04:41:33.542Z,8.57
2022-11-24T04:44:00.290Z,9.10
2022-11-24T04:46:27.087Z,9.18
2022-11-24T04:48:53.879Z,9.05
2022-11-24T04:51:20.677Z,9.68
2022-11-24T04:53:49.199Z,9.27
2022-11-24T04:56:15.988Z,9.73
2022-11-24T04:58:42.823Z,9.00
2022-11-24T05:01:09.752Z,9.25
2022-11-24T05:03:37.282Z,7.95
2022-11-24T05:06:04.291Z,7.78
2022-11-24T05:08:31.100Z,8.75
2022-11-24T05:10:58.351Z,7.35
2022-11-24T05:13:25.091Z,7.60
2022-11-24T05:15:51.970Z,7.03
2022-11-24T05:18:19.122Z,7.15
2022-11-24T05:20:45.966Z,6.25
2022-11-24T05:23:12.921Z,6.47
2022-11-24T05:25:42.431Z,5.53
2022-11-24T05:28:11.871Z,5.97
2022-11-24T05:30:40.235Z,4.70
2022-11-24T05:33:19.119Z,5.50
2022-11-24T05:35:47.776Z,5.30
2022-11-24T05:38:15.486Z,4.85
2022-11-24T05:40:42.981Z,4.22
2022-11-24T05:43:12.533Z,4.20
2022-11-24T05:45:39.557Z,4.43
2022-11-24T05:48:08.148Z,4.47
2022-11-24T05:50:35.596Z,4.47
2022-11-24T05:53:06.889Z,5.78
2022-11-24T05:55:33.796Z,6.55
2022-11-24T05:58:01.998Z,6.47
2022-11-24T06:00:29.939Z,6.43
2022-11-24T06:03:01.124Z,6.25
2022-11-24T06:05:29.392Z,6.78
2022-11-24T06:07:56.761Z,7.22
2022-11-24T06:10:26.945Z,6.45
2022-11-24T06:12:54.637Z,6.90
2022-11-24T06:15:21.595Z,6.13
2022-11-24T06:17:55.925Z,6.05
2022-11-24T06:20:28.371Z,8.48
2022-11-24T06:22:59.175Z,7.65
2022-11-24T06:25:26.517Z,8.23
2022-11-24T06:27:53.346Z,8.05
2022-11-24T06:30:20.184Z,6.90
2022-11-24T06:32:49.774Z,7.60
2022-11-24T06:35:17.534Z,9.13
2022-11-24T06:37:45.808Z,9.00
2022-11-24T06:40:12.871Z,10.75
2022-11-24T06:42:39.852Z,11.05
2022-11-24T06:45:09.340Z,10.35
2022-11-24T06:47:36.946Z,10.00
2022-11-24T06:50:04.349Z,10.90
2022-11-24T06:52:31.272Z,11.02
2022-11-24T06:54:58.041Z,10.75
2022-11-24T06:57:24.860Z,11.05
2022-11-24T06:59:52.201Z,11.55
2022-11-24T07:02:19.089Z,13.25
2022-11-24T07:04:45.903Z,13.77
2022-11-24T07:07:12.894Z,13.73
2022-11-24T07:09:39.831Z,14.68
2022-11-24T07:12:07.046Z,14.95
2022-11-24T07:14:34.183Z,55.53
2022-11-24T07:17:02.721Z,80.63
2022-11-24T07:19:29.663Z,68.53
2022-11-24T07:21:56.835Z,42.90
2022-11-24T07:24:23.649Z,42.88
2022-11-24T07:26:50.572Z,54.17
2022-11-24T07:29:17.554Z,42.88
2022-11-24T07:31:46.120Z,29.75
2022-11-24T07:34:14.884Z,29.67
2022-11-24T07:36:42.941Z,32.03
2022-11-24T07:39:09.755Z,40.83
2022-11-24T07:41:36.586Z,47.08
2022-11-24T07:44:03.542Z,53.30
2022-11-24T07:46:30.348Z,92.22
2022-11-24T07:48:57.138Z,196.70
2022-11-24T07:51:24.279Z,90.85
2022-11-24T07:53:51.103Z,57.20
2022-11-24T07:56:17.911Z,256.45
2022-11-24T07:58:49.715Z,122.40
2022-11-24T08:01:20.248Z,140.68
2022-11-24T08:03:47.897Z,117.53
2022-11-24T08:06:24.442Z,90.63
2022-11-24T08:08:53.478Z,108.68
2022-11-24T08:11:20.302Z,104.72
2022-11-24T08:13:47.182Z,75.63
2022-11-24T08:16:16.475Z,77.15
2022-11-24T08:18:44.209Z,55.13
2022-11-24T08:21:13.846Z,23.83
2022-11-24T08:23:41.998Z,19.45
2022-11-24T08:26:16.692Z,19.17
2022-11-24T08:28:44.586Z,15.93
2022-11-24T08:31:14.394Z,16.30
2022-11-24T08:33:41.835Z,11.98
2022-11-24T08:36:12.549Z,9.35
2022-11-24T08:38:39.618Z,8.48
2022-11-24T08:41:11.965Z,8.82
2022-11-24T08:43:39.070Z,8.68
2022-11-24T08:46:08.605Z,8.18
2022-11-24T08:48:36.185Z,7.50
2022-11-24T08:51:09.463Z,6.32
2022-11-24T08:53:36.288Z,7.80
2022-11-24T08:56:04.841Z,7.07
2022-11-24T08:58:32.601Z,6.80
2022-11-24T09:01:15.241Z,6.93
2022-11-24T09:03:51.275Z,5.68
2022-11-24T09:06:23.823Z,6.07
2022-11-24T09:08:52.274Z,6.70
2022-11-24T09:11:19.334Z,6.50
2022-11-24T09:13:46.434Z,6.43
2022-11-24T09:16:19.849Z,6.30
2022-11-24T09:18:47.557Z,6.18
2022-11-24T09:21:19.948Z,6.07
2022-11-24T09:23:49.074Z,6.65
2022-11-24T09:26:27.649Z,7.13
2022-11-24T09:28:55.561Z,6.75
2022-11-24T09:31:28.574Z,7.25
2022-11-24T09:33:56.246Z,7.25
2022-11-24T09:36:24.177Z,6.78
2022-11-24T09:38:51.517Z,7.00
2022-11-24T09:41:18.268Z,6.88
2022-11-24T09:44:00.104Z,7.45
2022-11-24T09:46:36.072Z,6.60
2022-11-24T09:49:04.885Z,7.30
2022-11-24T09:51:33.725Z,7.50
2022-11-24T09:54:13.452Z,6.88
2022-11-24T09:56:42.894Z,6.47
2022-11-24T09:59:16.912Z,6.68
2022-11-24T10:01:45.706Z,6.25
2022-11-24T10:04:34.667Z,6.10
2022-11-24T10:07:18.907Z,5.95
2022-11-24T10:12:36.376Z,5.60
2022-11-24T10:15:27.534Z,4.93
2022-11-24T10:18:18.495Z,4.65
2022-11-24T10:21:25.111Z,5.60
2022-11-24T10:23:59.661Z,5.05
2022-11-24T10:26:38.027Z,4.95
2022-11-24T10:29:18.588Z,5.13
2022-11-24T10:31:48.984Z,4.88
2022-11-24T10:34:23.226Z,5.20
2022-11-24T10:37:06.537Z,4.90
2022-11-24T10:39:46.739Z,4.27
2022-11-24T10:42:23.593Z,4.40
2022-11-24T10:45:08.781Z,5.18
2022-11-24T10:47:35.940Z,6.60
2022-11-24T10:50:20.535Z,7.50
2022-11-24T10:53:07.172Z,6.55
2022-11-24T10:55:56.030Z,6.97
2022-11-24T10:58:37.248Z,7.05
2022-11-24T11:01:13.471Z,27.02
2022-11-24T11:03:52.910Z,41.35
2022-11-24T11:06:31.014Z,32.10
2022-11-24T11:09:07.306Z,23.92
2022-11-24T11:11:42.553Z,11.65
2022-11-24T11:14:13.149Z,8.05
2022-11-24T11:16:50.751Z,8.18
2022-11-24T11:19:48.463Z,5.22
2022-11-24T11:22:25.957Z,5.30
2022-11-24T11:25:20.697Z,11.57
2022-11-24T11:27:48.382Z,8.20
2022-11-24T11:36:11.683Z,8.48
2022-11-24T11:38:40.322Z,8.35
2022-11-24T11:41:14.522Z,9.68
2022-11-24T11:43:42.273Z,9.57
2022-11-24T11:46:13.128Z,9.63
2022-11-24T11:48:45.229Z,10.27
2022-11-24T11:51:30.936Z,10.60
2022-11-24T11:54:12.827Z,10.32
2022-11-24T11:56:50.099Z,10.38
2022-11-24T11:59:35.409Z,13.25
2022-11-24T12:02:21.131Z,9.10
2022-11-24T12:05:01.912Z,9.90
2022-11-24T12:07:34.493Z,7.82
2022-11-24T12:10:07.134Z,8.38
2022-11-24T12:12:45.806Z,9.75
2022-11-24T12:15:25.508Z,10.10
2022-11-24T12:17:52.311Z,8.07
2022-11-24T12:20:26.602Z,12.63
2022-11-24T12:23:18.215Z,9.88
2022-11-24T12:25:52.693Z,7.47
2022-11-24T12:28:42.406Z,5.18
2022-11-24T12:31:22.571Z,5.32
2022-11-24T12:34:04.216Z,5.25
2022-11-24T12:36:58.732Z,4.57
2022-11-24T12:42:30.134Z,4.43
2022-11-24T12:45:09.053Z,5.03
2022-11-24T12:48:07.953Z,5.40
2022-11-24T12:50:39.820Z,5.43
2022-11-24T12:53:13.085Z,5.78
2022-11-24T12:55:41.521Z,5.45
2022-11-24T12:58:37.499Z,5.30
2022-11-24T13:01:22.984Z,5.25
2022-11-24T13:04:03.754Z,5.30
2022-11-24T13:06:51.928Z,4.70
2022-11-24T13:09:19.226Z,4.60
2022-11-24T13:11:53.333Z,4.97
2022-11-24T13:14:30.577Z,5.07
2022-11-24T13:19:50.051Z,4.97
2022-11-24T13:22:28.162Z,4.93
2022-11-24T13:25:16.312Z,4.53
2022-11-24T13:27:45.932Z,4.30
2022-11-24T13:30:34.541Z,4.10
2022-11-24T13:33:16.510Z,4.13
2022-11-24T13:36:24.781Z,3.85
2022-11-24T13:38:52.800Z,3.40
2022-11-24T13:41:34.803Z,3.20
2022-11-24T13:44:16.665Z,2.95
2022-11-24T13:47:18.639Z,2.70
2022-11-24T13:49:48.962Z,37.10
2022-11-24T13:52:40.249Z,14.85
2022-11-24T13:55:12.975Z,13.30
2022-11-24T13:57:48.118Z,6.18
2022-11-24T14:00:24.981Z,4.30
2022-11-24T14:02:54.357Z,3.78
2022-11-24T14:05:27.523Z,3.17
2022-11-24T14:07:54.874Z,3.45
2022-11-24T14:10:32.615Z,3.42
2022-11-24T14:13:21.158Z,3.42
2022-11-24T14:16:09.087Z,3.30
2022-11-24T14:18:47.538Z,2.88
2022-11-24T14:21:20.320Z,2.95
2022-11-24T14:23:53.035Z,3.58
2022-11-24T14:26:33.868Z,3.63
2022-11-24T14:29:06.865Z,2.53
2022-11-24T14:31:33.839Z,2.93
2022-11-24T14:34:14.819Z,25.48
2022-11-24T14:36:42.522Z,21.83
2022-11-24T14:39:14.655Z,18.15
2022-11-24T14:41:44.007Z,12.00
2022-11-24T14:44:19.651Z,7.55
2022-11-24T14:46:47.342Z,5.05
2022-11-24T14:49:23.382Z,4.78
2022-11-24T14:51:58.445Z,3.30
2022-11-24T14:54:25.563Z,3.10
2022-11-24T14:57:06.686Z,2.60
2022-11-24T14:59:36.345Z,2.53
2022-11-24T15:02:03.316Z,2.38
2022-11-24T15:04:54.801Z,2.30
2022-11-24T15:07:29.535Z,2.35
2022-11-24T15:10:01.024Z,2.63
2022-11-24T15:12:34.870Z,2.13
2022-11-24T15:17:31.798Z,2.03
2022-11-24T15:20:09.403Z,1.92
2022-11-24T15:22:39.486Z,2.00
2022-11-24T15:25:29.369Z,1.88
2022-11-24T15:27:56.371Z,1.83
2022-11-24T15:30:24.008Z,2.00
2022-11-24T15:32:56.124Z,2.00
2022-11-24T15:35:25.722Z,1.98
2022-11-24T15:37:52.920Z,2.20
2022-11-24T15:40:20.243Z,1.88
2022-11-24T15:42:54.116Z,3.33
2022-11-24T15:47:48.470Z,6.43
2022-11-24T15:50:15.575Z,4.88
2022-11-24T15:52:42.977Z,5.00
2022-11-24T15:55:19.523Z,4.38
2022-11-24T15:57:46.859Z,3.13
2022-11-24T16:00:23.700Z,3.22
2022-11-24T16:02:50.697Z,2.78
2022-11-24T16:05:18.026Z,2.95
2022-11-24T16:07:45.170Z,3.30
2022-11-24T16:10:30.164Z,3.10
2022-11-24T16:12:57.005Z,2.90
2022-11-24T16:15:23.896Z,3.00
2022-11-24T16:17:51.341Z,2.58
2022-11-24T16:20:18.419Z,2.22
2022-11-24T16:22:45.354Z,2.25
2022-11-24T16:25:13.696Z,2.60
2022-11-24T16:27:40.929Z,2.50
2022-11-24T16:30:10.739Z,4.15
2022-11-24T16:32:37.752Z,3.97
2022-11-24T16:35:06.088Z,3.40
2022-11-24T16:37:33.536Z,3.85
2022-11-24T16:40:03.974Z,3.30
2022-11-24T16:42:31.284Z,2.90
2022-11-24T16:44:58.145Z,2.63
2022-11-24T16:47:25.785Z,2.70
2022-11-24T16:49:52.672Z,3.00
2022-11-24T16:52:19.639Z,2.83
2022-11-24T16:54:47.729Z,2.80
2022-11-24T16:57:15.728Z,3.20
2022-11-24T16:59:46.245Z,3.38
2022-11-24T17:02:13.564Z,4.00
2022-11-24T17:04:40.470Z,4.18
2022-11-24T17:07:07.891Z,4.55
2022-11-24T17:09:40.363Z,5.35
2022-11-24T17:12:07.711Z,4.88
2022-11-24T17:14:34.855Z,5.60
2022-11-24T17:17:01.966Z,6.15
2022-11-24T17:19:31.798Z,5.78
2022-11-24T17:21:58.656Z,6.60
2022-11-24T17:24:25.517Z,5.85
2022-11-24T17:26:52.429Z,6.05
2022-11-24T17:29:19.488Z,5.53
2022-11-24T17:31:46.552Z,5.80
2022-11-24T17:34:13.551Z,5.07
2022-11-24T17:36:41.608Z,4.60
2022-11-24T17:39:09.010Z,4.82
2022-11-24T17:41:35.874Z,4.13
2022-11-24T17:44:02.959Z,3.65
2022-11-24T17:46:30.953Z,3.75
2022-11-24T17:48:57.990Z,4.57
2022-11-24T17:51:26.512Z,4.63
2022-11-24T17:53:54.668Z,4.90
2022-11-24T17:56:26.355Z,5.13
2022-11-24T17:59:01.181Z,4.95
2022-11-24T18:01:32.317Z,5.07
2022-11-24T18:03:59.480Z,5.18
2022-11-24T18:06:28.662Z,5.70
2022-11-24T18:08:57.703Z,5.22
2022-11-24T18:11:31.397Z,5.25
2022-11-24T18:14:02.669Z,4.90
2022-11-24T18:16:32.111Z,5.25
2022-11-24T18:19:08.777Z,6.40
2022-11-24T18:21:46.249Z,6.35
2022-11-24T18:24:13.854Z,6.28
2022-11-24T18:26:41.941Z,6.32
2022-11-24T18:29:10.057Z,6.20
2022-11-24T18:31:37.805Z,6.18
2022-11-24T18:34:06.441Z,5.82
2022-11-24T18:36:33.502Z,5.95
2022-11-24T18:39:01.742Z,6.00
2022-11-24T18:41:28.607Z,5.18
2022-11-24T18:43:55.459Z,5.55
2022-11-24T18:46:22.339Z,5.18
2022-11-24T18:48:51.424Z,5.30
2022-11-24T18:51:18.733Z,5.78
2022-11-24T18:53:46.978Z,5.70
2022-11-24T18:56:16.670Z,5.95
2022-11-24T18:58:44.384Z,5.30
2022-11-24T19:01:16.340Z,5.50
2022-11-24T19:03:51.400Z,5.78
2022-11-24T19:06:24.486Z,6.55
2022-11-24T19:08:53.908Z,6.70
2022-11-24T19:11:26.484Z,6.90
2022-11-24T19:13:53.513Z,6.70
2022-11-24T19:16:21.645Z,6.20
2022-11-24T19:18:54.107Z,6.22
2022-11-24T19:21:22.322Z,7.32
2022-11-24T19:23:49.916Z,7.10
2022-11-24T19:26:16.804Z,7.10
2022-11-24T19:28:44.193Z,6.70
2022-11-24T19:31:13.880Z,7.50
2022-11-24T19:33:41.389Z,7.00
2022-11-24T19:36:14.532Z,7.78
2022-11-24T19:38:41.894Z,7.35
2022-11-24T19:41:10.871Z,7.45
2022-11-24T19:43:38.572Z,7.85
2022-11-24T19:46:11.234Z,7.30
2022-11-24T19:48:45.917Z,7.75
2022-11-24T19:51:15.556Z,7.63
2022-11-24T19:53:43.267Z,7.20
2022-11-24T19:56:12.821Z,6.53
2022-11-24T19:58:40.362Z,7.03
2022-11-24T20:01:07.478Z,6.50
2022-11-24T20:03:35.012Z,6.88
2022-11-24T20:06:01.838Z,6.78
2022-11-24T20:08:30.711Z,6.80
2022-11-24T20:11:12.261Z,6.93
2022-11-24T20:13:40.520Z,7.03
2022-11-24T20:16:13.687Z,7.65
2022-11-24T20:18:44.104Z,6.53
2022-11-24T20:21:11.869Z,6.47
2022-11-24T20:23:39.640Z,6.80
2022-11-24T20:26:09.476Z,7.40
2022-11-24T20:28:36.406Z,6.35
2022-11-24T20:31:05.452Z,5.85
2022-11-24T20:33:32.305Z,5.43
2022-11-24T20:36:26.925Z,5.78
2022-11-24T20:41:26.448Z,6.00
2022-11-24T20:43:54.920Z,5.68
2022-11-24T20:46:25.335Z,6.85
2022-11-24T20:48:52.677Z,6.55
2022-11-24T20:51:25.669Z,6.57
2022-11-24T20:53:55.241Z,6.00
2022-11-24T20:56:24.879Z,6.30
2022-11-24T20:58:52.085Z,6.07
2022-11-24T21:01:21.400Z,5.25
2022-11-24T21:03:56.577Z,5.80
2022-11-24T21:06:23.945Z,5.50
2022-11-24T21:08:51.188Z,5.22
2022-11-24T21:11:19.012Z,5.28
2022-11-24T21:13:46.365Z,6.32
2022-11-24T21:16:15.964Z,6.22
2022-11-24T21:18:44.563Z,6.65
2022-11-24T21:21:12.606Z,7.28
2022-11-24T21:23:39.905Z,6.78
2022-11-24T21:26:13.007Z,7.00
2022-11-24T21:28:43.002Z,7.53
2022-11-24T21:31:13.591Z,6.88
2022-11-24T21:33:42.417Z,6.93
2022-11-24T21:36:09.524Z,6.75
2022-11-24T21:38:36.598Z,6.28
2022-11-24T21:41:06.171Z,6.68
2022-11-24T21:43:33.368Z,6.03
2022-11-24T21:46:07.998Z,5.78
2022-11-24T21:48:36.219Z,5.40
2022-11-24T21:51:05.884Z,5.78
2022-11-24T21:53:35.831Z,5.60
2022-11-24T21:56:06.016Z,6.35
2022-11-24T21:58:33.610Z,6.63
2022-11-24T22:01:05.078Z,6.90
2022-11-24T22:03:32.249Z,6.15
2022-11-24T22:06:00.492Z,6.85
2022-11-24T22:08:29.604Z,7.50
2022-11-24T22:11:17.822Z,6.60
2022-11-24T22:13:45.649Z,6.60
2022-11-24T22:16:20.296Z,6.35
2022-11-24T22:18:47.406Z,6.30
2022-11-24T22:21:33.485Z,6.00
2022-11-24T22:24:00.931Z,6.95
2022-11-24T22:26:28.866Z,6.68
2022-11-24T22:28:57.093Z,6.85
2022-11-24T22:31:26.234Z,7.10
2022-11-24T22:33:54.381Z,5.68
2022-11-24T22:36:22.827Z,6.57
2022-11-24T22:39:04.116Z,6.22
2022-11-24T22:41:35.408Z,5.85
2022-11-24T22:44:02.438Z,5.88
2022-11-24T22:46:31.088Z,5.82
2022-11-24T22:49:00.123Z,6.38
2022-11-24T22:51:29.713Z,5.95
2022-11-24T22:53:58.273Z,5.78
2022-11-24T22:56:27.968Z,5.60
2022-11-24T22:58:54.797Z,5.88
2022-11-24T23:01:25.783Z,5.85
2022-11-24T23:03:54.644Z,5.75
2022-11-24T23:06:27.036Z,6.95
2022-11-24T23:08:53.878Z,6.07
2022-11-24T23:11:29.069Z,6.75
2022-11-24T23:14:00.552Z,6.28
2022-11-24T23:16:29.026Z,7.07
2022-11-24T23:18:56.278Z,6.70
2022-11-24T23:21:26.788Z,6.70
2022-11-24T23:23:54.045Z,7.20
2022-11-24T23:26:26.977Z,6.40
2022-11-24T23:28:54.161Z,6.45
2022-11-24T23:31:30.519Z,6.65
2022-11-24T23:34:02.777Z,6.40
2022-11-24T23:36:30.653Z,6.43
2022-11-24T23:39:06.538Z,6.60
2022-11-24T23:41:33.609Z,6.57
2022-11-24T23:44:00.893Z,6.32
2022-11-24T23:46:28.290Z,6.63
2022-11-24T23:48:56.245Z,6.60
2022-11-24T23:51:27.804Z,6.40
2022-11-24T23:53:55.401Z,6.38
2022-11-24T23:56:24.392Z,6.25
2022-11-24T23:58:51.773Z,6.13
